createdAt,value
2022-08-19T00:00:55.905Z,7.48
2022-08-19T00:06:05.641Z,7.48
2022-08-19T00:11:26.360Z,7.58
2022-08-19T00:16:27.220Z,7.58
2022-08-19T00:21:32.350Z,7.61
2022-08-19T00:26:41.468Z,7.61
2022-08-19T00:31:51.261Z,7.62
2022-08-19T00:37:00.378Z,7.62
2022-08-19T00:42:17.544Z,7.63
2022-08-19T00:47:20.968Z,7.63
2022-08-19T00:52:28.994Z,7.63
2022-08-19T00:57:39.426Z,7.63
2022-08-19T01:03:25.646Z,7.57
2022-08-19T01:08:36.044Z,7.57
2022-08-19T01:13:50.920Z,7.58
2022-08-19T01:19:01.317Z,7.58
2022-08-19T01:24:11.164Z,7.76
2022-08-19T01:29:21.338Z,7.76
2022-08-19T01:34:30.611Z,7.9
2022-08-19T01:39:42.674Z,7.9
2022-08-19T01:45:43.559Z,7.79
2022-08-19T01:50:32.881Z,7.79
2022-08-19T01:56:06.938Z,7.74
2022-08-19T02:01:22.485Z,7.74
2022-08-19T02:06:07.821Z,7.79
2022-08-19T02:10:39.549Z,7.79
2022-08-19T02:15:49.961Z,7.7
2022-08-19T02:20:59.075Z,7.7
2022-08-19T02:26:08.204Z,7.88
2022-08-19T02:31:17.328Z,7.88
2022-08-19T02:36:25.815Z,7.73
2022-08-19T02:41:38.761Z,7.78
2022-08-19T02:46:47.257Z,7.78
2022-08-19T02:51:57.637Z,7.84
2022-08-19T02:57:07.413Z,7.84
2022-08-19T03:02:17.791Z,7.7
2022-08-19T03:07:30.114Z,7.7
2022-08-19T03:13:05.508Z,7.65
2022-08-19T03:18:08.714Z,7.65
2022-08-19T03:23:17.330Z,7.63
2022-08-19T03:28:27.096Z,7.63
2022-08-19T03:33:36.832Z,7.7
2022-08-19T03:38:47.456Z,7.7
2022-08-19T03:43:58.912Z,7.79
2022-08-19T03:49:15.019Z,7.79
2022-08-19T03:54:20.359Z,7.67
2022-08-19T03:59:29.465Z,7.67
2022-08-19T04:04:38.632Z,7.64
2022-08-19T04:09:50.272Z,7.64
2022-08-19T04:14:58.749Z,7.65
2022-08-19T04:20:09.183Z,7.65
2022-08-19T04:25:19.542Z,7.66
2022-08-19T04:30:31.778Z,7.66
2022-08-19T04:35:41.562Z,7.63
2022-08-19T04:40:52.484Z,7.63
2022-08-19T04:46:03.522Z,7.74
2022-08-19T04:51:17.654Z,7.74
2022-08-19T04:56:32.561Z,7.68
2022-08-19T05:01:48.046Z,7.68
2022-08-19T05:07:15.144Z,8.01
2022-08-19T05:12:23.835Z,8.01
2022-08-19T05:17:39.732Z,8.06
2022-08-19T05:22:54.874Z,8.06
2022-08-19T05:28:10.781Z,8.55
2022-08-19T05:33:25.658Z,8.15
2022-08-19T05:38:40.539Z,8.15
2022-08-19T05:43:56.702Z,8.2
2022-08-19T05:49:12.123Z,8.2
2022-08-19T05:54:28.053Z,8.24
2022-08-19T05:59:48.455Z,8.24
2022-08-19T06:03:39.740Z,8.14
2022-08-19T06:08:48.187Z,8.14
2022-08-19T06:14:00.683Z,8.13
2022-08-19T06:19:07.123Z,8.13
2022-08-19T06:24:19.407Z,8.4
2022-08-19T06:29:28.514Z,8.4
2022-08-19T06:34:38.311Z,8
2022-08-19T06:39:47.842Z,8
2022-08-19T06:44:59.376Z,8.35
2022-08-19T06:50:11.989Z,8.35
2022-08-19T06:55:40.996Z,8.24
2022-08-19T07:00:50.748Z,8.24
2022-08-19T07:06:01.296Z,8.19
2022-08-19T07:11:11.411Z,8.19
2022-08-19T07:16:29.922Z,8.18
2022-08-19T07:21:29.807Z,8.18
2022-08-19T07:26:45.984Z,8.32
2022-08-19T07:31:51.759Z,8.32
2022-08-19T07:36:57.800Z,8.31
2022-08-19T07:42:05.634Z,8.31
2022-08-19T07:47:51.555Z,8.38
2022-08-19T07:52:28.992Z,8.38
2022-08-19T07:57:40.861Z,8.33
2022-08-19T08:02:56.787Z,8.33
2022-08-19T08:08:04.036Z,8.1
2022-08-19T08:13:13.725Z,8.22
2022-08-19T08:18:30.702Z,8.22
2022-08-19T08:23:30.769Z,8.21
2022-08-19T08:28:41.271Z,8.21
2022-08-19T08:33:58.595Z,7.99
2022-08-19T08:39:11.610Z,7.99
2022-08-19T08:44:22.194Z,7.75
2022-08-19T08:49:31.156Z,7.75
2022-08-19T08:54:56.120Z,7.97
2022-08-19T08:59:51.233Z,7.97
2022-08-19T09:05:02.610Z,8.06
2022-08-19T09:10:10.752Z,8.06
2022-08-19T09:15:37.001Z,8.23
2022-08-19T09:20:28.744Z,8.23
2022-08-19T09:25:40.694Z,7.95
2022-08-19T09:30:54.003Z,7.95
2022-08-19T09:36:14.051Z,8.02
2022-08-19T09:41:25.093Z,8.02
2022-08-19T09:46:40.633Z,7.82
2022-08-19T09:51:55.417Z,7.82
2022-08-19T09:57:11.570Z,8.4
2022-08-19T10:02:28.937Z,8.4
2022-08-19T10:07:45.230Z,8.5
2022-08-19T10:13:10.045Z,8.5
2022-08-19T10:18:13.657Z,8.67
2022-08-19T10:23:30.498Z,8.67
2022-08-19T10:28:47.058Z,7.84
2022-08-19T10:34:04.442Z,7.84
2022-08-19T10:39:32.627Z,7.92
2022-08-19T10:44:33.178Z,7.92
2022-08-19T10:48:24.525Z,8.04
2022-08-19T10:55:13.169Z,8.04
2022-08-19T11:00:28.712Z,8.06
2022-08-19T11:05:44.852Z,7.77
2022-08-19T11:09:19.521Z,7.77
2022-08-19T11:11:39.509Z,7.77
2022-08-19T11:14:36.364Z,7.42
2022-08-19T11:16:56.297Z,7.42
2022-08-19T11:19:53.796Z,7.42
2022-08-19T11:22:16.167Z,7.42
2022-08-19T11:26:48.220Z,7.64
2022-08-19T11:27:38.213Z,7.64
2022-08-19T11:32:07.862Z,7.64
2022-08-19T11:35:06.505Z,7.64
2022-08-19T11:40:15.961Z,7.59
2022-08-19T11:40:55.542Z,7.59
2022-08-19T11:45:34.938Z,7.47
2022-08-19T11:46:14.868Z,7.47
2022-08-19T11:50:52.362Z,7.47
2022-08-19T11:51:32.305Z,7.47
2022-08-19T11:56:09.799Z,7.45
2022-08-19T11:57:00.866Z,7.45
2022-08-19T12:02:11.398Z,7.45
2022-08-19T12:04:31.342Z,7.45
2022-08-19T12:07:32.051Z,8.33
2022-08-19T12:16:34.180Z,7.99
2022-08-19T12:19:33.022Z,7.99
2022-08-19T12:24:47.928Z,7.99
2022-08-19T12:25:37.932Z,7.99
2022-08-19T12:30:02.777Z,7.72
2022-08-19T12:30:52.777Z,7.72
2022-08-19T12:35:18.332Z,7.72
2022-08-19T12:36:08.321Z,7.72
2022-08-19T12:41:05.482Z,7.61
2022-08-19T12:41:55.312Z,7.61
2022-08-19T12:46:26.414Z,7.71
2022-08-19T12:52:30.922Z,7.71
2022-08-19T12:53:25.768Z,7.71
2022-08-19T12:58:35.080Z,7.42
2022-08-19T12:59:15.015Z,7.42
2022-08-19T13:03:52.518Z,7.42
2022-08-19T13:04:32.466Z,7.42
2022-08-19T13:09:10.593Z,7.59
2022-08-19T13:14:52.977Z,7.68
2022-08-19T13:17:23.111Z,7.68
2022-08-19T13:22:39.298Z,7.68
2022-08-19T13:23:29.291Z,7.68
2022-08-19T13:28:29.531Z,7.43
2022-08-19T13:28:57.414Z,7.43
2022-08-19T13:33:38.752Z,7.43
2022-08-19T13:34:18.699Z,7.43
2022-08-19T13:38:58.118Z,6.98
2022-08-19T13:39:38.110Z,6.98
2022-08-19T13:44:18.747Z,6.98
2022-08-19T13:50:11.394Z,7.24
2022-08-19T13:50:51.353Z,7.24
2022-08-19T13:55:47.418Z,7.13
2022-08-19T13:56:27.350Z,7.13
2022-08-19T14:01:07.570Z,7.13
2022-08-19T14:01:47.011Z,7.13
2022-08-19T14:06:33.823Z,7
2022-08-19T14:07:13.773Z,7
2022-08-19T14:11:51.892Z,7
2022-08-19T14:15:40.187Z,7
2022-08-19T14:20:48.783Z,7
2022-08-19T14:21:28.725Z,7
2022-08-19T14:26:17.799Z,7.08
2022-08-19T14:27:20.495Z,7.08
2022-08-19T14:32:23.164Z,7.08
2022-08-19T14:33:03.112Z,7.08
2022-08-19T14:37:57.661Z,7
2022-08-19T14:39:16.497Z,7
2022-08-19T14:44:26.437Z,7
2022-08-19T14:45:06.381Z,7
2022-08-19T14:49:50.442Z,7.06
2022-08-19T14:50:28.678Z,7.06
2022-08-19T14:55:07.964Z,7.06
2022-08-19T14:55:47.507Z,7.06
2022-08-19T15:00:23.240Z,6.82
2022-08-19T15:01:03.182Z,6.82
2022-08-19T15:06:03.728Z,6.92
2022-08-19T15:06:43.667Z,6.92
2022-08-19T15:11:21.176Z,6.92
2022-08-19T15:12:01.101Z,6.92
2022-08-19T15:16:42.515Z,6.79
2022-08-19T15:19:02.396Z,6.79
2022-08-19T15:22:49.454Z,6.79
2022-08-19T15:24:29.454Z,6.79
2022-08-19T15:28:07.529Z,6.79
2022-08-19T15:29:47.530Z,6.79
2022-08-19T15:34:12.903Z,6.79
2022-08-19T15:35:02.902Z,6.79
2022-08-19T15:39:27.454Z,6.65
2022-08-19T15:40:17.523Z,6.65
2022-08-19T15:44:41.514Z,6.65
2022-08-19T15:50:00.221Z,6.73
2022-08-19T15:50:46.419Z,6.73
2022-08-19T15:55:16.059Z,6.73
2022-08-19T15:56:01.891Z,6.73
2022-08-19T16:00:53.345Z,6.75
2022-08-19T16:06:54.318Z,6.73
2022-08-19T16:07:34.211Z,6.73
2022-08-19T16:12:25.809Z,6.73
2022-08-19T16:18:35.711Z,6.75
2022-08-19T16:19:15.654Z,6.75
2022-08-19T16:24:03.415Z,6.75
2022-08-19T16:25:00.202Z,6.75
2022-08-19T16:30:09.512Z,6.74
2022-08-19T16:32:29.418Z,6.74
2022-08-19T16:36:26.937Z,6.99
2022-08-19T16:38:06.958Z,6.99
2022-08-19T16:42:30.970Z,6.99
2022-08-19T16:43:20.968Z,6.99
2022-08-19T16:47:48.646Z,6.88
2022-08-19T16:48:38.605Z,6.88
2022-08-19T16:53:02.616Z,6.88
2022-08-19T16:59:05.815Z,7.01
2022-08-19T16:59:48.603Z,7.01
2022-08-19T17:04:35.400Z,7.01
2022-08-19T17:05:15.340Z,7.01
2022-08-19T17:09:55.919Z,6.93
2022-08-19T17:10:35.180Z,6.93
2022-08-19T17:15:14.137Z,6.93
2022-08-19T17:15:54.072Z,6.93
2022-08-19T17:20:37.954Z,6.91
2022-08-19T17:21:17.900Z,6.91
2022-08-19T17:25:54.735Z,6.91
2022-08-19T17:26:34.683Z,6.91
2022-08-19T17:31:13.504Z,7.03
2022-08-19T17:31:53.424Z,7.03
2022-08-19T17:36:33.506Z,6.97
2022-08-19T17:37:13.439Z,6.97
2022-08-19T17:42:08.281Z,6.97
2022-08-19T17:42:46.413Z,6.97
2022-08-19T17:47:56.950Z,6.96
2022-08-19T17:53:57.315Z,6.96
2022-08-19T17:54:40.074Z,6.96
2022-08-19T17:59:37.754Z,7.08
2022-08-19T18:07:09.369Z,7.08
2022-08-19T18:07:59.369Z,7.08
2022-08-19T18:12:24.218Z,7.33
2022-08-19T18:13:18.083Z,7.33
2022-08-19T18:17:39.129Z,7.15
2022-08-19T18:23:46.250Z,7.15
2022-08-19T18:29:14.433Z,7.22
2022-08-19T18:31:36.065Z,7.22
2022-08-19T18:36:14.915Z,7.22
2022-08-19T18:37:07.853Z,7.22
2022-08-19T18:42:16.529Z,7.14
2022-08-19T18:42:56.472Z,7.14
2022-08-19T18:47:37.809Z,7.19
2022-08-19T18:48:28.081Z,7.19
2022-08-19T18:52:55.890Z,7.19
2022-08-19T18:53:35.834Z,7.19
2022-08-19T18:58:12.674Z,7.09
2022-08-19T18:58:52.619Z,7.09
2022-08-19T19:03:44.197Z,7.09
2022-08-19T19:04:24.136Z,7.09
2022-08-19T19:09:03.572Z,7.2
2022-08-19T19:11:23.514Z,7.2
2022-08-19T19:16:22.474Z,7.2
2022-08-19T19:17:08.766Z,7.2
2022-08-19T19:21:19.900Z,7.04
2022-08-19T19:22:09.911Z,7.04
2022-08-19T19:26:36.090Z,7.04
2022-08-19T19:27:26.091Z,7.04
2022-08-19T19:31:50.924Z,6.92
2022-08-19T19:32:40.923Z,6.92
2022-08-19T19:37:08.375Z,6.92
2022-08-19T19:37:58.379Z,6.92
2022-08-19T19:42:23.932Z,7.11
2022-08-19T19:43:13.935Z,7.11
2022-08-19T19:47:39.416Z,7.31
2022-08-19T19:53:26.222Z,7.31
2022-08-19T19:54:48.105Z,7.31
2022-08-19T19:59:51.985Z,7.29
2022-08-19T20:00:35.872Z,7.29
2022-08-19T20:05:44.513Z,7.29
2022-08-19T20:06:24.460Z,7.29
2022-08-19T20:11:02.626Z,7.58
2022-08-19T20:11:42.540Z,7.58
2022-08-19T20:16:23.249Z,7.58
2022-08-19T20:17:03.189Z,7.58
2022-08-19T20:21:40.028Z,7.45
2022-08-19T20:24:26.129Z,7.45
2022-08-19T20:28:58.472Z,7.25
2022-08-19T20:30:32.601Z,7.25
2022-08-19T20:34:55.250Z,7.25
2022-08-19T20:35:45.256Z,7.25
2022-08-19T20:40:10.241Z,7.41
2022-08-19T20:45:33.936Z,7.41
2022-08-19T20:46:15.652Z,7.41
2022-08-19T20:50:40.555Z,7.11
2022-08-19T20:51:30.555Z,7.11
2022-08-19T20:55:57.616Z,7.11
2022-08-19T20:56:46.733Z,7.11
2022-08-19T21:01:12.294Z,7.13
2022-08-19T21:02:02.215Z,7.13
2022-08-19T21:06:29.075Z,7.13
2022-08-19T21:07:19.083Z,7.13
2022-08-19T21:11:42.618Z,7.13
2022-08-19T21:12:32.615Z,7.13
2022-08-19T21:16:57.513Z,7.13
2022-08-19T21:17:47.510Z,7.13
2022-08-19T21:22:13.007Z,6.98
2022-08-19T21:23:03.017Z,6.98
2022-08-19T21:27:28.530Z,6.98
2022-08-19T21:28:29.824Z,6.98
2022-08-19T21:33:07.190Z,6.9
2022-08-19T21:33:46.071Z,6.9
2022-08-19T21:38:23.570Z,7.04
2022-08-19T21:39:03.515Z,7.04
2022-08-19T21:43:42.275Z,7.04
2022-08-19T21:44:22.215Z,7.04
2022-08-19T21:49:01.774Z,6.92
2022-08-19T21:49:41.587Z,6.92
2022-08-19T21:54:20.443Z,6.92
2022-08-19T21:55:00.363Z,6.92
2022-08-19T21:59:44.453Z,6.91
2022-08-19T22:00:19.042Z,6.91
2022-08-19T22:04:55.909Z,6.91
2022-08-19T22:10:32.495Z,6.91
2022-08-19T22:15:39.916Z,6.92
2022-08-19T22:22:10.145Z,6.93
2022-08-19T22:32:29.035Z,6.96
2022-08-19T22:41:08.154Z,6.91
2022-08-19T22:46:22.646Z,6.91
2022-08-19T22:51:38.784Z,6.82
2022-08-19T22:57:29.510Z,6.82
2022-08-19T23:03:00.039Z,6.89
2022-08-19T23:08:03.589Z,6.89
2022-08-19T23:13:14.810Z,6.88
2022-08-19T23:17:40.298Z,6.88
2022-08-19T23:22:14.605Z,6.81
2022-08-19T23:27:24.682Z,6.81
2022-08-19T23:32:34.130Z,6.83
2022-08-19T23:37:45.164Z,6.83
2022-08-19T23:42:56.827Z,6.77
2022-08-19T23:48:07.247Z,6.89
2022-08-19T23:53:17.003Z,6.89
2022-08-19T23:58:30.539Z,7.4
